Time;durP1;ratioP1;P1;durP2;ratioP2;P2;SDS_P1;SDS_P2;PMS_P1;PMS_P2;Temp;Humidity;BMP_temperature;BMP_pressure;BME280_temperature;BME280_humidity;BME280_pressure;Samples;Min_cycle;Max_cycle;Signal;HPM_P1;HPM_P2
2023/01/01 00:00:39;;;;;;;29.23;13.05;;;16.40;60.80;;;15.33;48.74;99992.38;5023133;28;20052;-74
2023/01/01 00:03:06;;;;;;;28.42;12.27;;;16.40;60.90;;;15.32;48.16;99988.84;5025690;28;20557;-75
2023/01/01 00:05:33;;;;;;;28.85;14.07;;;16.40;60.50;;;15.35;48.11;99993.72;5027676;28;20041;-74
2023/01/01 00:08:00;;;;;;;29.00;14.70;;;16.40;60.40;;;15.34;48.71;100000.16;5024695;28;20056;-74
2023/01/01 00:10:29;;;;;;;27.65;14.57;;;16.30;61.00;;;15.36;48.62;99994.53;5023793;28;20126;-74
2023/01/01 00:12:59;;;;;;;28.42;14.75;;;16.40;60.70;;;15.37;48.26;100007.72;5027459;28;20526;-74
2023/01/01 00:15:27;;;;;;;27.73;15.35;;;16.40;60.50;;;15.38;48.26;99995.09;5031851;28;20500;-74
2023/01/01 00:17:54;;;;;;;30.45;16.25;;;16.40;60.50;;;15.38;47.85;100003.16;5025526;28;20044;-73
2023/01/01 00:20:21;;;;;;;32.20;16.55;;;16.30;60.00;;;15.38;48.56;100008.53;5025056;28;20057;-75
2023/01/01 00:22:48;;;;;;;39.50;17.42;;;16.40;60.90;;;15.36;48.22;100000.72;5022102;28;20053;-74
2023/01/01 00:25:17;;;;;;;30.60;16.55;;;16.40;60.40;;;15.37;48.63;99994.28;5026888;28;20053;-74
2023/01/01 00:27:44;;;;;;;33.10;17.88;;;16.40;60.90;;;15.35;48.21;99995.59;5021482;28;20824;-74
2023/01/01 00:30:14;;;;;;;38.83;19.63;;;16.40;60.60;;;15.33;48.25;99995.88;5022700;28;20510;-74
2023/01/01 00:32:41;;;;;;;35.42;20.90;;;16.40;60.20;;;15.31;48.41;99992.59;5029207;28;20052;-74
2023/01/01 00:35:09;;;;;;;41.55;22.85;;;16.40;60.30;;;15.32;48.34;99988.84;5021671;28;20043;-75
2023/01/01 00:37:36;;;;;;;42.17;24.38;;;16.40;60.40;;;15.30;48.61;99992.88;5022409;28;20038;-75
2023/01/01 00:40:04;;;;;;;34.42;23.13;;;16.40;60.60;;;15.31;49.18;99997.16;5022216;28;20396;-74
2023/01/01 00:42:31;;;;;;;46.78;26.00;;;16.30;61.20;;;15.30;48.67;100001.72;5024151;28;20412;-74
2023/01/01 00:44:59;;;;;;;45.85;27.98;;;16.40;60.80;;;15.28;48.47;99995.00;5018948;28;20053;-74
2023/01/01 00:47:27;;;;;;;41.75;26.67;;;16.40;60.30;;;15.29;48.52;100000.13;5020577;28;20827;-74
2023/01/01 00:49:54;;;;;;;45.95;26.73;;;16.30;60.60;;;15.29;48.66;100010.88;5027043;28;20048;-74
2023/01/01 00:52:21;;;;;;;44.42;27.17;;;16.40;60.80;;;15.29;48.26;100000.13;5030797;28;20128;-74
2023/01/01 00:54:48;;;;;;;44.33;26.15;;;16.30;60.40;;;15.31;47.85;100011.41;5028210;28;20124;-74
2023/01/01 00:57:15;;;;;;;39.33;24.38;;;16.30;60.00;;;15.30;47.80;100009.78;5026644;28;20053;-75
2023/01/01 00:59:43;;;;;;;44.47;25.52;;;16.30;59.50;;;15.32;47.67;100002.28;5023280;28;20042;-74
2023/01/01 01:02:10;;;;;;;38.60;25.48;;;16.30;59.70;;;15.32;47.75;100002.28;5017774;28;20046;-75
2023/01/01 01:04:38;;;;;;;42.88;25.25;;;16.30;59.70;;;15.30;47.47;100001.72;5017853;28;20045;-75
2023/01/01 01:07:05;;;;;;;41.83;25.75;;;16.30;59.30;;;15.29;48.04;99991.25;5017860;28;20045;-74
2023/01/01 01:09:33;;;;;;;45.83;26.10;;;16.30;60.00;;;15.27;47.96;99996.03;5041930;28;20124;-75
2023/01/01 01:12:00;;;;;;;36.88;25.25;;;16.30;59.90;;;15.27;48.14;100002.22;5017503;28;20084;-74
2023/01/01 01:14:27;;;;;;;36.65;24.60;;;16.30;60.30;;;15.25;47.57;99992.81;5026302;28;20055;-74
2023/01/01 01:16:54;;;;;;;43.53;25.88;;;16.30;59.20;;;15.26;47.55;99997.94;5021655;28;20056;-74
2023/01/01 01:19:22;;;;;;;36.45;23.98;;;16.20;59.10;;;15.21;47.49;99997.88;5028807;28;20041;-74
2023/01/01 01:21:51;;;;;;;36.45;23.10;;;16.20;59.10;;;15.22;47.57;100009.44;5017280;28;20546;-73
2023/01/01 01:24:19;;;;;;;36.30;21.88;;;16.30;59.20;;;15.19;47.02;100016.94;5027366;28;20069;-78
2023/01/01 01:26:46;;;;;;;29.13;18.65;;;16.20;58.50;;;15.20;46.95;100015.06;5019947;28;20068;-73
2023/01/01 01:29:13;;;;;;;30.63;18.15;;;16.20;58.40;;;15.18;47.37;100009.16;5036491;28;20044;-74
2023/01/01 01:31:40;;;;;;;24.77;16.00;;;16.20;58.80;;;15.16;47.13;100005.88;5023465;28;20060;-74
2023/01/01 01:34:07;;;;;;;24.92;14.85;;;16.20;58.50;;;15.15;46.47;100013.13;5017027;28;20044;-74
2023/01/01 01:36:34;;;;;;;24.08;15.02;;;16.20;58.00;;;15.17;46.86;100007.50;5014464;28;20037;-74
2023/01/01 01:39:03;;;;;;;20.63;13.68;;;16.20;58.30;;;15.17;46.72;100018.25;5025218;28;20045;-75
2023/01/01 01:41:30;;;;;;;26.88;13.40;;;16.20;58.10;;;15.17;46.49;100012.88;5028350;28;20056;-74
2023/01/01 01:44:00;;;;;;;21.50;12.57;;;16.20;57.70;;;15.17;46.60;100027.13;5026681;28;20052;-75
2023/01/01 01:46:34;;;;;;;19.80;12.55;;;16.20;57.90;;;15.18;46.27;100027.94;5036499;28;20056;-75
2023/01/01 01:49:13;;;;;;;23.75;12.48;;;16.20;57.60;;;15.17;46.31;100023.63;5022961;28;20128;-75
2023/01/01 01:51:42;;;;;;;19.27;12.63;;;16.20;57.50;;;15.17;46.26;100010.19;5026070;28;20045;-75
2023/01/01 01:54:16;;;;;;;20.33;13.20;;;16.20;57.70;;;15.14;45.95;100026.81;5039441;28;20048;-75
2023/01/01 01:56:48;;;;;;;22.90;13.07;;;16.20;56.90;;;15.11;45.96;100035.38;5023590;28;20047;-75
2023/01/01 01:59:17;;;;;;;23.10;12.60;;;16.10;57.10;;;15.07;46.37;100031.56;5031423;28;20051;-75
2023/01/01 02:01:44;;;;;;;20.23;12.40;;;16.10;57.50;;;15.09;46.39;100037.50;5029191;28;20048;-75
2023/01/01 02:04:12;;;;;;;20.17;11.63;;;16.10;57.40;;;15.09;46.17;100043.69;5028386;28;20056;-75
2023/01/01 02:06:40;;;;;;;18.73;11.80;;;16.10;57.30;;;15.04;46.11;100043.63;5028854;28;20120;-75
2023/01/01 02:09:11;;;;;;;19.30;12.23;;;16.10;57.20;;;15.02;46.09;100055.69;5029334;28;20045;-75
2023/01/01 02:11:38;;;;;;;17.93;12.83;;;16.00;57.30;;;15.02;45.86;100053.00;5029067;28;20049;-75
2023/01/01 02:14:08;;;;;;;18.13;12.18;;;16.00;56.80;;;14.99;46.42;100042.78;5036603;28;20060;-74
2023/01/01 02:16:43;;;;;;;20.77;10.67;;;16.00;57.40;;;15.00;45.70;100049.75;5037875;28;20049;-75
2023/01/01 02:19:26;;;;;;;17.58;9.65;;;16.00;56.70;;;15.03;45.69;100042.03;5022974;28;20041;-75
2023/01/01 02:22:06;;;;;;;13.68;8.95;;;16.00;56.80;;;15.03;45.57;100043.88;5020692;28;20060;-75
2023/01/01 02:25:08;;;;;;;16.40;9.63;;;16.00;56.80;;;15.01;45.67;100041.44;5032122;28;20077;-75
2023/01/01 02:27:50;;;;;;;14.90;9.43;;;16.00;56.80;;;14.98;45.69;100043.81;5045495;28;20045;-75
2023/01/01 02:30:18;;;;;;;;;;;16.00;56.50;;;15.00;46.13;100044.38;5028763;28;20502;-74
2023/01/01 02:32:49;;;;;;;15.65;7.00;;;16.00;57.00;;;14.94;45.34;100036.28;5034722;28;19932;-75
2023/01/01 02:35:34;;;;;;;14.88;6.75;;;16.00;56.10;;;14.94;45.97;100041.66;5038942;28;20057;-75
2023/01/01 02:38:08;;;;;;;8.73;4.43;;;16.00;56.90;;;14.93;45.08;100047.25;5025318;28;20038;-75
2023/01/01 02:40:40;;;;;;;9.63;4.05;;;16.00;55.90;;;14.96;45.24;100054.00;5025914;28;20537;-74
2023/01/01 02:43:08;;;;;;;8.63;3.67;;;16.00;56.10;;;14.98;45.36;100052.69;5025426;28;20081;-74
2023/01/01 02:45:36;;;;;;;8.15;2.75;;;16.00;56.10;;;14.94;44.83;100038.97;5054184;23;20408;-76
2023/01/01 02:48:05;;;;;;;8.23;3.10;;;16.00;55.50;;;14.96;44.87;100040.56;5023658;28;20050;-76
2023/01/01 02:50:34;;;;;;;7.78;2.80;;;16.00;55.50;;;14.94;45.44;100057.75;5006021;28;20069;-76
2023/01/01 02:53:13;;;;;;;8.00;2.47;;;16.00;56.40;;;14.94;45.64;100051.56;5006718;28;20046;-76
2023/01/01 02:55:58;;;;;;;10.18;2.30;;;16.20;56.60;;;14.92;44.85;100043.75;4999906;28;20038;-76
2023/01/01 03:01:33;;;;;;;6.72;2.35;;;16.00;55.80;;;14.92;45.13;100059.84;4992243;28;20205;-76
2023/01/01 03:04:15;;;;;;;7.65;2.05;;;16.00;56.10;;;14.88;45.17;100048.03;4998440;28;20053;-76
2023/01/01 03:07:02;;;;;;;6.05;2.03;;;15.90;55.80;;;14.88;44.96;100050.72;4985243;28;20417;-76
2023/01/01 03:09:42;;;;;;;4.40;1.88;;;15.90;55.50;;;14.90;44.95;100061.19;4979603;28;20038;-76
2023/01/01 03:12:21;;;;;;;7.57;1.98;;;15.90;55.40;;;14.88;44.93;100061.44;4982260;28;20038;-76
2023/01/01 03:14:55;;;;;;;5.82;2.13;;;15.90;55.60;;;14.88;45.07;100064.13;4982187;28;20054;-76
2023/01/01 03:17:30;;;;;;;6.47;2.17;;;15.90;55.70;;;14.87;45.38;100070.53;4987903;28;20585;-76
2023/01/01 03:20:01;;;;;;;6.18;2.03;;;15.90;56.10;;;14.86;44.81;100062.75;4996302;28;20508;-76
2023/01/01 03:22:34;;;;;;;5.40;1.70;;;15.90;55.50;;;14.87;44.84;100072.41;4982790;28;20527;-76
2023/01/01 03:25:08;;;;;;;7.07;2.17;;;15.90;55.30;;;14.85;45.14;100061.94;4977751;28;20042;-76
2023/01/01 03:27:42;;;;;;;5.18;2.10;;;15.90;55.70;;;14.85;45.08;100061.94;4985037;28;20034;-76
2023/01/01 03:30:12;;;;;;;8.55;1.95;;;15.90;55.90;;;14.84;45.59;100067.56;4989454;28;20084;-76
2023/01/01 03:33:00;;;;;;;4.97;1.80;;;15.90;56.10;;;14.83;45.23;100066.72;5005248;28;20041;-76
2023/01/01 03:35:35;;;;;;;6.40;1.90;;;15.90;55.90;;;14.83;45.39;100071.28;5012663;28;20059;-76
2023/01/01 03:38:08;;;;;;;8.80;1.85;;;15.90;56.20;;;14.84;45.30;100072.94;4991496;28;20054;-76
2023/01/01 03:40:38;;;;;;;4.43;1.65;;;15.90;56.20;;;14.85;45.82;100075.34;5011059;28;20526;-76
2023/01/01 03:43:13;;;;;;;6.88;1.85;;;16.10;56.80;;;14.83;45.77;100073.97;4992378;28;20042;-75
2023/01/01 03:45:44;;;;;;;8.15;1.92;;;15.90;56.50;;;14.88;46.14;100079.41;4984458;28;20046;-76
2023/01/01 03:48:13;;;;;;;5.72;1.80;;;15.90;56.90;;;14.88;45.92;100079.41;4991309;28;20419;-76
2023/01/01 03:50:55;;;;;;;7.55;2.05;;;15.90;56.90;;;14.85;46.01;100080.72;5006742;28;20042;-76
2023/01/01 03:53:36;;;;;;;8.45;2.00;;;15.80;56.30;;;14.85;45.51;100072.69;4981045;28;20043;-76
2023/01/01 03:56:13;;;;;;;6.45;1.80;;;15.90;56.30;;;14.86;45.62;100076.16;4977925;28;20042;-76
2023/01/01 03:58:49;;;;;;;7.55;2.15;;;15.90;56.40;;;14.84;45.90;100091.72;4994065;28;20042;-76
2023/01/01 04:01:24;;;;;;;5.82;1.98;;;15.80;56.50;;;14.83;45.18;100096.25;4996459;28;20096;-76
2023/01/01 04:03:53;;;;;;;8.25;2.25;;;15.80;55.90;;;14.83;46.14;100077.47;4985405;28;20045;-76
2023/01/01 04:06:21;;;;;;;7.78;1.92;;;15.90;57.00;;;14.79;45.93;100087.09;4990959;28;20057;-76
2023/01/01 04:08:52;;;;;;;8.90;2.22;;;15.90;56.80;;;14.81;45.88;100100.28;4999114;28;20050;-76
2023/01/01 04:14:10;;;;;;;9.10;2.22;;;15.80;57.00;;;14.78;47.33;100111.50;4992631;28;20043;-76
2023/01/01 04:16:37;;;;;;;7.72;1.75;;;15.80;58.30;;;14.77;47.14;100128.66;4990465;28;20049;-76
2023/01/01 04:19:06;;;;;;;9.00;2.05;;;15.80;58.10;;;14.78;47.90;100119.53;4991275;28;20046;-76
2023/01/01 04:21:33;;;;;;;8.50;1.90;;;15.80;58.90;;;14.78;47.29;100112.28;4991719;28;20061;-76
2023/01/01 04:24:00;;;;;;;5.97;1.95;;;15.80;58.50;;;14.77;47.20;100099.13;4985971;28;20457;-76
2023/01/01 04:26:28;;;;;;;7.60;1.70;;;15.80;58.30;;;14.78;46.86;100104.25;4987926;28;20046;-76
2023/01/01 04:28:55;;;;;;;9.60;2.22;;;15.80;57.70;;;14.85;47.19;100101.41;4997382;28;20049;-76
2023/01/01 04:31:22;;;;;;;6.05;1.80;;;15.90;58.50;;;14.84;46.73;100111.34;4992111;28;20376;-76
2023/01/01 04:33:53;;;;;;;8.13;1.80;;;15.90;57.90;;;14.86;47.25;100098.47;4991884;28;20042;-76
2023/01/01 04:36:21;;;;;;;8.95;2.17;;;15.90;58.50;;;14.84;46.67;100103.28;4989768;28;20408;-76
2023/01/01 04:38:48;;;;;;;8.75;1.88;;;15.90;57.90;;;14.87;46.75;100110.81;4994278;28;20085;-76
2023/01/01 04:41:15;;;;;;;8.15;2.13;;;15.90;58.10;;;14.84;47.15;100108.66;4989229;28;20404;-76
2023/01/01 04:43:48;;;;;;;5.28;1.80;;;15.90;58.10;;;14.88;46.95;100103.56;4991778;28;20058;-76
2023/01/01 04:46:16;;;;;;;8.13;2.10;;;15.90;58.20;;;14.86;47.27;100114.56;4990516;28;20409;-76
2023/01/01 04:48:45;;;;;;;5.88;2.08;;;15.90;58.50;;;14.86;47.30;100116.44;5002260;28;20048;-76
2023/01/01 04:51:15;;;;;;;9.85;2.28;;;15.90;58.40;;;14.90;47.34;100113.00;4990798;28;20034;-76
2023/01/01 04:53:44;;;;;;;9.90;2.10;;;15.90;58.50;;;14.89;47.43;100121.31;4985882;28;20042;-76
2023/01/01 04:56:14;;;;;;;5.93;1.83;;;15.90;58.50;;;14.91;47.74;100130.75;4987706;28;20045;-76
2023/01/01 04:58:43;;;;;;;6.85;1.83;;;15.90;59.00;;;14.90;47.28;100129.13;4995482;28;20039;-76
2023/01/01 05:01:21;;;;;;;8.00;2.00;;;15.90;58.70;;;14.95;47.71;100133.75;4996926;28;20049;-76
2023/01/01 05:03:48;;;;;;;7.38;2.47;;;15.90;59.30;;;14.92;47.13;100137.72;4987974;28;20060;-76
2023/01/01 05:06:16;;;;;;;9.05;2.50;;;15.90;58.50;;;14.90;47.51;100142.56;5001689;28;20100;-76
2023/01/01 05:08:46;;;;;;;10.27;1.88;;;15.90;59.00;;;14.92;47.46;100128.88;4978509;28;20053;-76
2023/01/01 05:11:15;;;;;;;6.70;1.70;;;15.90;58.90;;;14.91;47.64;100128.06;4985576;28;20043;-76
2023/01/01 05:13:46;;;;;;;6.38;1.88;;;15.90;59.00;;;14.90;47.58;100123.75;4985746;28;20038;-76
2023/01/01 05:16:16;;;;;;;7.93;2.20;;;15.90;59.10;;;14.90;47.82;100125.63;5000799;28;20145;-76
2023/01/01 05:18:44;;;;;;;8.07;2.00;;;15.90;59.20;;;14.92;47.90;100129.69;4997589;28;20496;-76
2023/01/01 05:21:13;;;;;;;8.50;2.00;;;15.90;59.10;;;14.93;47.87;100125.97;4982774;28;20051;-76
2023/01/01 05:23:41;;;;;;;7.18;1.90;;;15.90;59.30;;;14.94;48.19;100130.25;4984037;28;20403;-76
2023/01/01 05:26:12;;;;;;;6.95;1.67;;;15.90;59.70;;;14.93;48.16;100131.31;4992346;28;20045;-76
2023/01/01 05:28:40;;;;;;;9.07;1.92;;;15.90;59.70;;;14.94;48.32;100134.81;4978393;28;20310;-76
2023/01/01 05:31:09;;;;;;;9.02;1.88;;;15.90;59.90;;;14.96;47.78;100142.63;4981244;28;20489;-76
2023/01/01 05:33:37;;;;;;;4.60;1.42;;;16.00;59.30;;;14.92;48.04;100151.16;4990106;28;20045;-76
2023/01/01 05:36:06;;;;;;;7.90;2.03;;;15.90;59.40;;;14.93;47.83;100142.06;5002650;28;20050;-76
2023/01/01 05:38:33;;;;;;;7.55;1.83;;;15.90;59.40;;;14.93;47.97;100160.88;4985299;28;20166;-76
2023/01/01 05:41:05;;;;;;;11.57;2.10;;;15.90;59.50;;;14.92;47.99;100155.72;4983701;28;20051;-76
2023/01/01 05:43:33;;;;;;;8.23;2.10;;;15.90;59.30;;;14.91;47.98;100156.78;4984573;28;20100;-76
2023/01/01 05:46:02;;;;;;;7.82;2.05;;;15.90;59.40;;;14.91;48.17;100180.97;4995671;28;20060;-76
2023/01/01 05:48:29;;;;;;;9.05;2.20;;;15.90;59.50;;;14.89;48.32;100183.91;4982153;28;20074;-76
2023/01/01 05:51:03;;;;;;;6.75;2.30;;;15.90;60.10;;;14.91;48.42;100183.63;4984079;28;20049;-76
2023/01/01 05:53:31;;;;;;;7.25;2.15;;;15.90;59.90;;;14.90;48.73;100172.09;4991552;28;20053;-76
2023/01/01 05:55:58;;;;;;;9.75;1.92;;;15.90;60.40;;;14.87;49.18;100177.94;5001153;28;20042;-76
2023/01/01 05:58:27;;;;;;;7.47;2.03;;;15.90;61.00;;;14.84;49.76;100180.34;4992462;28;20065;-76
2023/01/01 06:00:56;;;;;;;7.90;2.10;;;15.90;61.70;;;14.80;50.13;100209.53;4971894;28;20605;-76
2023/01/01 06:03:23;;;;;;;8.20;2.17;;;15.80;61.90;;;14.79;50.08;100210.59;4974992;28;20397;-76
2023/01/01 06:05:52;;;;;;;7.05;1.85;;;15.90;62.00;;;14.78;50.51;100208.94;5001388;28;20041;-75
2023/01/01 06:08:19;;;;;;;8.07;1.88;;;15.90;62.60;;;14.80;51.03;100203.34;4988996;28;20057;-76
2023/01/01 06:10:46;;;;;;;6.28;2.15;;;15.90;63.20;;;14.80;51.37;100190.75;4986423;28;20046;-76
2023/01/01 06:13:13;;;;;;;9.95;2.35;;;15.80;63.40;;;14.74;51.83;100207.00;4989316;28;20575;-76
2023/01/01 06:15:40;;;;;;;6.55;2.13;;;15.80;63.80;;;14.70;51.58;100219.31;4989319;28;20512;-76
2023/01/01 06:18:09;;;;;;;8.68;2.20;;;15.80;63.60;;;14.68;52.06;100228.38;4984917;28;20117;-76
2023/01/01 06:20:36;;;;;;;10.20;2.13;;;15.80;64.20;;;14.70;52.03;100232.72;4980779;28;20042;-76
2023/01/01 06:23:03;;;;;;;10.90;2.30;;;15.80;64.20;;;14.70;51.33;100228.16;4987755;28;20054;-75
2023/01/01 06:25:30;;;;;;;7.93;2.00;;;15.80;63.60;;;14.71;50.90;100224.41;5002424;28;20049;-76
2023/01/01 06:27:57;;;;;;;7.43;2.00;;;15.80;63.00;;;14.75;51.07;100228.25;4982549;28;20042;-76
2023/01/01 06:30:24;;;;;;;7.60;2.10;;;15.80;63.20;;;14.77;51.13;100234.19;4978013;28;20046;-75
2023/01/01 06:32:53;;;;;;;5.47;2.00;;;15.80;63.40;;;14.77;50.75;100238.72;4974083;28;20671;-76
2023/01/01 06:35:21;;;;;;;5.80;2.03;;;15.80;63.10;;;14.78;50.98;100259.97;4983576;28;20117;-76
2023/01/01 06:37:48;;;;;;;5.72;1.98;;;15.80;63.20;;;14.76;50.71;100253.22;4989447;28;20070;-76
2023/01/01 06:40:15;;;;;;;7.20;2.20;;;15.70;63.00;;;14.73;51.17;100264.44;4989623;28;20057;-76
2023/01/01 06:42:42;;;;;;;7.85;2.10;;;15.80;63.30;;;14.73;50.58;100251.00;4982540;28;20046;-76
2023/01/01 06:45:12;;;;;;;8.40;2.58;;;15.80;62.60;;;14.75;50.21;100255.09;4997060;28;20046;-76
2023/01/01 06:47:39;;;;;;;5.57;1.80;;;15.80;62.50;;;14.76;50.31;100267.47;4993150;28;20830;-76
2023/01/01 06:50:07;;;;;;;6.18;1.92;;;15.70;62.40;;;14.76;50.30;100282.75;4982404;28;20042;-76
2023/01/01 06:52:36;;;;;;;8.30;2.20;;;15.80;62.50;;;14.76;50.36;100280.88;4982028;28;20053;-76
2023/01/01 06:55:03;;;;;;;6.10;1.88;;;15.80;62.60;;;14.75;50.52;100284.63;4992152;28;20523;-76
2023/01/01 06:58:24;;;;;;;6.90;1.98;;;15.70;62.60;;;14.76;50.71;100286.25;4996860;28;20046;-76
2023/01/01 07:00:54;;;;;;;8.18;2.03;;;15.80;62.80;;;14.77;51.04;100276.31;4972401;28;20094;-76
2023/01/01 07:03:21;;;;;;;9.95;2.35;;;15.80;63.20;;;14.77;51.11;100285.19;4977341;28;20685;-76
2023/01/01 07:05:49;;;;;;;7.88;2.38;;;15.80;63.60;;;14.77;51.63;100285.19;4991032;28;20046;-76
2023/01/01 07:08:17;;;;;;;10.45;2.05;;;15.80;64.00;;;14.76;52.33;100282.75;5001285;28;20042;-76
2023/01/01 07:10:44;;;;;;;9.88;2.20;;;15.80;65.00;;;14.76;52.50;100283.56;4978142;28;20616;-76
2023/01/01 07:13:11;;;;;;;7.55;2.28;;;15.80;65.20;;;14.77;52.46;100289.75;4978252;28;20053;-76
2023/01/01 07:15:38;;;;;;;6.75;1.90;;;15.80;65.00;;;14.75;52.25;100289.19;5008080;28;20530;-76
2023/01/01 07:18:06;;;;;;;6.65;2.08;;;15.70;64.80;;;14.73;52.36;100292.09;5007120;28;20046;-76
2023/01/01 07:20:33;;;;;;;6.75;1.90;;;15.70;64.90;;;14.72;51.71;100297.72;4991634;28;20042;-76
2023/01/01 07:23:01;;;;;;;13.00;2.33;;;15.70;64.20;;;14.72;51.79;100301.22;4983514;28;20467;-76
2023/01/01 07:25:30;;;;;;;5.10;2.00;;;15.90;64.40;;;14.73;51.50;100310.06;4994894;28;20096;-76
2023/01/01 07:27:57;;;;;;;6.43;1.92;;;15.80;64.00;;;14.70;52.32;100306.03;4992990;28;20500;-76
2023/01/01 07:30:24;;;;;;;7.57;1.95;;;15.80;64.70;;;14.69;52.44;100323.19;5008563;28;20042;-76
2023/01/01 07:32:55;;;;;;;7.00;2.28;;;15.70;65.00;;;14.70;52.68;100319.44;4988313;28;20121;-76
2023/01/01 07:35:22;;;;;;;8.98;2.30;;;15.80;65.30;;;14.74;52.92;100322.44;5008553;28;20050;-76
2023/01/01 07:37:49;;;;;;;5.57;1.98;;;15.70;65.80;;;14.74;52.84;100335.84;4991071;28;20488;-76
2023/01/01 07:40:17;;;;;;;8.18;1.90;;;15.70;65.80;;;14.75;53.11;100350.94;4984206;28;20053;-76
2023/01/01 07:42:45;;;;;;;10.55;2.38;;;15.80;66.00;;;14.75;54.24;100353.63;4991547;28;20038;-76
2023/01/01 07:45:13;;;;;;;7.60;1.95;;;15.80;67.00;;;14.71;54.52;100342.53;5001999;28;20050;-76
2023/01/01 07:47:40;;;;;;;5.30;2.03;;;15.70;67.70;;;14.68;55.17;100354.56;4993259;28;20054;-76
2023/01/01 07:50:14;;;;;;;7.05;1.98;;;15.70;68.40;;;14.71;55.77;100337.16;4992520;28;20046;-76
2023/01/01 07:52:42;;;;;;;8.57;2.80;;;15.70;68.90;;;14.65;55.82;100354.25;4986558;28;20489;-76
2023/01/01 07:55:12;;;;;;;9.13;2.35;;;15.70;69.40;;;14.63;56.24;100356.34;4993549;28;20042;-76
2023/01/01 07:57:40;;;;;;;7.05;2.03;;;15.70;69.90;;;14.63;57.24;100359.03;4986795;28;21890;-77
2023/01/01 08:00:11;;;;;;;11.23;2.65;;;15.60;71.00;;;14.60;57.38;100368.38;4982588;28;20046;-74
2023/01/01 08:02:40;;;;;;;8.02;2.20;;;15.70;71.30;;;14.61;57.16;100377.25;4997600;28;20169;-76
2023/01/01 08:05:08;;;;;;;6.72;2.25;;;15.60;70.90;;;14.57;57.02;100379.59;4996158;28;20046;-75
2023/01/01 08:07:35;;;;;;;6.72;2.40;;;15.60;70.70;;;14.49;57.26;100373.78;4991789;28;20049;-76
2023/01/01 08:10:04;;;;;;;9.60;2.05;;;15.60;70.90;;;14.49;57.56;100365.72;4990281;28;20046;-77
2023/01/01 08:12:31;;;;;;;11.15;2.70;;;15.70;71.20;;;14.50;57.28;100378.13;4990111;28;20053;-77
2023/01/01 08:14:58;;;;;;;10.25;2.63;;;15.50;71.10;;;14.55;57.58;100394.31;4994932;28;20046;-77
2023/01/01 08:17:26;;;;;;;8.50;2.13;;;15.60;71.50;;;14.53;57.88;100391.84;4996411;28;20050;-76
2023/01/01 08:19:53;;;;;;;9.68;2.75;;;15.50;72.00;;;14.52;57.84;100402.84;4986639;28;20042;-77
2023/01/01 08:22:20;;;;;;;12.20;2.53;;;15.50;71.70;;;14.45;57.73;100399.47;4987434;28;20047;-77
2023/01/01 08:24:48;;;;;;;8.60;2.63;;;15.50;71.70;;;14.38;57.55;100392.34;4984272;28;20046;-77
2023/01/01 08:27:16;;;;;;;10.02;2.60;;;15.50;71.40;;;14.42;57.42;100404.22;4987122;28;20047;-77
2023/01/01 08:29:44;;;;;;;8.13;2.58;;;15.50;71.40;;;14.41;57.04;100399.94;4975621;28;20038;-78
2023/01/01 08:32:11;;;;;;;7.80;2.47;;;15.50;71.10;;;14.42;56.82;100404.22;4976811;28;20042;-78
2023/01/01 08:34:40;;;;;;;8.18;2.45;;;15.50;70.80;;;14.43;56.66;100397.81;4973411;28;20505;-78
2023/01/01 08:37:12;;;;;;;6.93;2.13;;;15.40;70.70;;;14.46;56.42;100399.22;4986986;28;20045;-78
2023/01/01 08:39:39;;;;;;;7.05;2.05;;;15.50;70.60;;;14.47;56.60;100403.53;4983764;28;20046;-77
2023/01/01 08:42:07;;;;;;;7.97;2.22;;;15.50;70.60;;;14.49;56.63;100414.03;4987316;28;20050;-76
2023/01/01 08:44:35;;;;;;;7.43;2.63;;;15.50;70.70;;;14.49;56.39;100438.19;4982727;28;20042;-76
2023/01/01 08:47:02;;;;;;;11.38;2.80;;;15.50;70.30;;;14.45;56.59;100437.84;5032832;23;20427;-84
2023/01/01 08:49:29;;;;;;;7.85;2.35;;;15.50;70.50;;;14.47;56.47;100440.28;5025279;28;20034;-83
2023/01/01 08:51:58;;;;;;;7.80;2.40;;;15.50;70.70;;;14.45;56.62;100450.44;5021807;28;20052;-84
2023/01/01 08:54:25;;;;;;;10.82;2.50;;;15.40;70.50;;;14.44;56.72;100446.91;5021943;28;20061;-83
2023/01/01 08:56:52;;;;;;;8.20;2.60;;;15.40;70.40;;;14.43;56.84;100448.78;5010194;28;20048;-85
2023/01/01 08:59:19;;;;;;;7.38;2.30;;;15.40;70.70;;;14.41;56.29;100445.53;4999965;28;21582;-83
2023/01/01 09:01:47;;;;;;;6.45;2.17;;;15.40;70.30;;;14.46;56.93;100450.19;4999420;28;20065;-84
2023/01/01 09:04:14;;;;;;;8.05;2.22;;;15.50;70.90;;;14.46;56.48;100452.06;5014179;28;20140;-85
2023/01/01 09:06:41;;;;;;;6.93;2.15;;;15.50;70.40;;;14.44;56.64;100460.34;5008732;28;20408;-85
2023/01/01 09:09:10;;;;;;;7.93;2.47;;;15.50;70.50;;;14.44;56.60;100471.06;5004467;28;20041;-84
2023/01/01 09:11:38;;;;;;;9.70;2.40;;;15.40;70.50;;;14.46;56.97;100470.84;5016341;28;20475;-85
2023/01/01 09:14:05;;;;;;;10.20;2.85;;;15.40;70.90;;;14.48;56.66;100477.63;5027362;28;20120;-87
2023/01/01 09:16:33;;;;;;;11.05;2.33;;;15.60;70.70;;;14.47;56.66;100473.28;5013106;28;20138;-81
2023/01/01 09:19:00;;;;;;;10.93;2.67;;;15.50;70.60;;;14.50;56.66;100472.06;5009720;28;20042;-82
2023/01/01 09:21:27;;;;;;;8.48;2.90;;;15.50;70.50;;;14.47;56.38;100492.06;5009377;28;20418;-81
2023/01/01 09:23:54;;;;;;;5.70;2.38;;;15.50;70.30;;;14.47;56.66;100502.00;5004722;28;20074;-82
2023/01/01 09:26:23;;;;;;;11.27;2.35;;;15.50;70.70;;;14.49;56.60;100506.09;5007063;28;20038;-82
2023/01/01 09:28:50;;;;;;;7.22;2.42;;;15.50;70.50;;;14.49;56.51;100491.88;5009394;28;20046;-83
2023/01/01 09:31:17;;;;;;;7.60;2.10;;;15.50;70.30;;;14.50;56.94;100499.69;5018500;28;20053;-84
2023/01/01 09:33:44;;;;;;;6.68;2.15;;;15.50;70.90;;;14.54;56.87;100500.88;5013873;28;20044;-89
2023/01/01 09:36:26;;;;;;;14.38;2.45;;;15.50;70.80;;;14.56;56.44;100503.31;5022267;28;20045;-90
2023/01/01 09:38:56;;;;;;;10.70;2.35;;;15.50;70.70;;;14.56;56.59;100495.25;5018116;28;20049;-90
2023/01/01 09:41:39;;;;;;;10.70;2.60;;;15.50;70.50;;;14.61;56.24;100500.72;5030885;28;20045;-88
2023/01/01 09:44:20;;;;;;;8.55;2.47;;;15.60;70.30;;;14.62;56.77;100510.41;5000757;28;20586;-88
2023/01/01 09:46:48;;;;;;;5.28;1.83;;;15.90;70.80;;;14.60;56.40;100515.19;5010329;28;20052;-85
2023/01/01 09:49:22;;;;;;;14.93;2.80;;;15.60;70.20;;;14.58;56.29;100525.34;5003011;28;20502;-83
2023/01/01 09:51:57;;;;;;;9.60;2.42;;;15.60;70.20;;;14.56;56.66;100530.94;5002905;28;20043;-83
2023/01/01 09:54:32;;;;;;;9.73;2.55;;;15.60;70.40;;;14.55;56.28;100512.41;5011667;28;20053;-84
2023/01/01 09:57:05;;;;;;;11.00;2.60;;;15.50;70.10;;;14.55;56.16;100525.81;5010528;28;20069;-77
2023/01/01 09:59:32;;;;;;;8.50;2.80;;;15.50;70.10;;;14.58;56.60;100512.72;5002666;28;20046;-92
2023/01/01 10:02:14;;;;;;;7.28;2.20;;;15.60;70.50;;;14.61;56.47;100525.69;5000915;28;20045;-90
2023/01/01 10:04:51;;;;;;;;;;;15.60;70.30;;;14.62;56.49;100526.50;5000391;28;20566;-92
2023/01/01 10:07:29;;;;;;;8.98;2.25;;;15.60;70.50;;;14.61;56.72;100540.97;4994609;28;19959;-87
2023/01/01 10:10:03;;;;;;;10.80;2.50;;;15.60;70.60;;;14.61;56.90;100552.53;4992931;28;20420;-88
2023/01/01 10:12:42;;;;;;;8.23;2.20;;;15.60;70.90;;;14.61;56.82;100552.53;5022305;28;20038;-87
2023/01/01 10:15:15;;;;;;;11.43;2.70;;;15.60;70.60;;;14.59;56.79;100554.66;5002270;28;20042;-88
2023/01/01 10:17:47;;;;;;;8.52;2.40;;;15.70;70.80;;;14.60;56.46;100550.91;5008215;28;20053;-86
2023/01/01 10:20:21;;;;;;;8.40;1.98;;;15.60;70.70;;;14.59;56.51;100540.38;5014826;28;20567;-86
2023/01/01 10:22:55;;;;;;;12.40;2.78;;;15.60;70.50;;;14.56;56.37;100530.13;4989006;28;20487;-87
2023/01/01 10:25:27;;;;;;;9.45;2.75;;;15.70;70.30;;;14.56;56.42;100532.81;4997047;28;20042;-88
2023/01/01 10:28:00;;;;;;;12.73;2.40;;;15.60;70.50;;;14.53;56.72;100533.28;4995334;28;20056;-87